createdAt,value
2022-08-02T00:01:00.115Z,3.80
2022-08-02T00:03:28.055Z,3.00
2022-08-02T00:05:56.095Z,3.73
2022-08-02T00:08:25.328Z,3.43
2022-08-02T00:10:53.251Z,4.00
2022-08-02T00:13:21.124Z,4.30
2022-08-02T00:15:50.340Z,4.00
2022-08-02T00:18:18.244Z,4.00
2022-08-02T00:20:46.142Z,4.30
2022-08-02T00:23:14.057Z,3.50
2022-08-02T00:25:54.333Z,4.00
2022-08-02T00:28:27.342Z,3.67
2022-08-02T00:30:58.142Z,3.63
2022-08-02T00:34:27.439Z,3.40
2022-08-02T00:36:14.104Z,4.03
2022-08-02T00:38:42.078Z,3.70
2022-08-02T00:41:14.731Z,3.53
2022-08-02T00:43:42.665Z,3.27
2022-08-02T00:46:12.256Z,3.60
2022-08-02T00:48:41.502Z,3.60
2022-08-02T00:51:11.159Z,3.97
2022-08-02T00:53:39.442Z,3.30
2022-08-02T00:56:07.453Z,3.57
2022-08-02T00:58:35.381Z,3.77
2022-08-02T01:01:03.592Z,4.17
2022-08-02T01:03:32.940Z,3.33
2022-08-02T01:06:16.165Z,3.77
2022-08-02T01:08:44.492Z,3.43
2022-08-02T01:11:12.576Z,4.73
2022-08-02T01:13:40.676Z,3.60
2022-08-02T01:16:15.261Z,4.67
2022-08-02T01:18:52.194Z,4.30
2022-08-02T01:21:39.100Z,3.63
2022-08-02T01:24:22.203Z,4.20
2022-08-02T01:26:55.715Z,4.37
2022-08-02T01:29:30.862Z,4.73
2022-08-02T01:32:04.650Z,4.30
2022-08-02T01:34:36.794Z,4.27
2022-08-02T01:37:09.993Z,3.67
2022-08-02T01:39:41.716Z,4.03
2022-08-02T01:42:11.246Z,4.57
2022-08-02T01:44:43.391Z,4.30
2022-08-02T01:47:22.378Z,4.07
2022-08-02T01:49:55.982Z,4.67
2022-08-02T01:52:26.905Z,4.97
2022-08-02T01:55:00.473Z,4.33
2022-08-02T01:57:31.022Z,4.90
2022-08-02T02:00:01.513Z,5.03
2022-08-02T02:02:32.036Z,4.53
2022-08-02T02:05:01.744Z,4.67
2022-08-02T02:07:32.556Z,4.93
2022-08-02T02:10:03.325Z,4.70
2022-08-02T02:12:34.997Z,4.47
2022-08-02T02:15:05.769Z,4.90
2022-08-02T02:17:50.509Z,4.47
2022-08-02T02:20:23.174Z,4.10
2022-08-02T02:22:51.631Z,4.27
2022-08-02T02:25:27.534Z,4.40
2022-08-02T02:28:07.986Z,3.80
2022-08-02T02:30:40.885Z,4.50
2022-08-02T02:33:10.712Z,4.13
2022-08-02T02:35:39.290Z,3.87
2022-08-02T02:38:12.167Z,5.23
2022-08-02T02:40:41.422Z,4.37
2022-08-02T02:43:10.813Z,4.33
2022-08-02T02:45:41.718Z,4.70
2022-08-02T02:48:10.557Z,4.13
2022-08-02T02:50:39.329Z,4.57
2022-08-02T02:53:07.924Z,4.67
2022-08-02T02:55:36.265Z,3.73
2022-08-02T02:58:06.213Z,4.27
2022-08-02T03:01:00.546Z,4.17
2022-08-02T03:03:30.768Z,4.20
2022-08-02T03:05:58.725Z,4.20
2022-08-02T03:08:26.727Z,4.10
2022-08-02T03:10:55.473Z,4.53
2022-08-02T03:13:24.230Z,4.20
2022-08-02T03:16:02.899Z,3.90
2022-08-02T03:18:36.286Z,3.87
2022-08-02T03:21:06.285Z,4.40
2022-08-02T03:23:35.132Z,4.87
2022-08-02T03:26:03.428Z,4.77
2022-08-02T03:28:31.695Z,4.17
2022-08-02T03:31:00.732Z,4.40
2022-08-02T03:33:29.589Z,3.70
2022-08-02T03:36:03.356Z,5.17
2022-08-02T03:38:33.449Z,3.40
2022-08-02T03:41:03.573Z,3.90
2022-08-02T03:43:32.358Z,4.43
2022-08-02T03:46:01.166Z,5.23
2022-08-02T03:48:34.816Z,4.27
2022-08-02T03:51:04.977Z,3.60
2022-08-02T03:53:33.798Z,3.60
2022-08-02T03:56:02.098Z,4.20
2022-08-02T03:58:29.969Z,4.70
2022-08-02T04:00:58.750Z,4.40
2022-08-02T04:03:27.429Z,4.30
2022-08-02T04:06:03.579Z,4.60
2022-08-02T04:08:38.033Z,5.27
2022-08-02T04:11:24.307Z,4.57
2022-08-02T04:13:52.526Z,5.33
2022-08-02T04:16:27.106Z,4.40
2022-08-02T04:18:57.647Z,4.97
2022-08-02T04:21:48.535Z,4.03
2022-08-02T04:24:22.937Z,4.30
2022-08-02T04:26:54.305Z,4.10
2022-08-02T04:29:23.398Z,4.50
2022-08-02T04:31:52.533Z,4.47
2022-08-02T04:34:20.635Z,4.47
2022-08-02T04:36:48.905Z,4.43
2022-08-02T04:39:18.146Z,4.40
2022-08-02T04:41:47.949Z,4.93
2022-08-02T04:44:15.827Z,5.57
2022-08-02T04:46:45.291Z,6.40
2022-08-02T04:49:13.651Z,5.20
2022-08-02T04:51:42.970Z,5.23
2022-08-02T04:54:12.096Z,5.77
2022-08-02T04:56:41.812Z,5.17
2022-08-02T04:59:10.064Z,5.93
2022-08-02T05:01:39.251Z,5.50
2022-08-02T05:04:07.358Z,6.20
2022-08-02T05:06:35.218Z,4.97
2022-08-02T05:09:03.231Z,5.18
2022-08-02T05:11:36.180Z,4.65
2022-08-02T05:14:06.401Z,6.20
2022-08-02T05:16:34.641Z,5.82
2022-08-02T05:19:02.939Z,5.18
2022-08-02T05:21:31.678Z,5.47
2022-08-02T05:23:59.814Z,5.75
2022-08-02T05:26:27.704Z,5.30
2022-08-02T05:28:55.659Z,4.68
2022-08-02T05:31:24.952Z,5.57
2022-08-02T05:33:53.031Z,5.50
2022-08-02T05:36:21.654Z,6.03
2022-08-02T05:38:50.804Z,5.60
2022-08-02T05:41:19.176Z,5.10
2022-08-02T05:43:47.508Z,6.43
2022-08-02T05:46:15.352Z,5.55
2022-08-02T05:48:45.727Z,4.85
2022-08-02T05:51:21.066Z,5.55
2022-08-02T05:54:00.870Z,4.88
2022-08-02T05:56:47.031Z,5.05
2022-08-02T05:59:32.047Z,5.75
2022-08-02T06:02:04.349Z,4.57
2022-08-02T06:04:44.045Z,4.50
2022-08-02T06:07:13.731Z,5.50
2022-08-02T06:09:42.771Z,5.10
2022-08-02T06:12:13.128Z,4.45
2022-08-02T06:14:43.081Z,5.15
2022-08-02T06:17:11.689Z,4.93
2022-08-02T06:19:51.120Z,5.18
2022-08-02T06:22:34.513Z,4.70
2022-08-02T06:25:05.829Z,4.90
2022-08-02T06:27:34.963Z,5.40
2022-08-02T06:30:03.903Z,4.32
2022-08-02T06:32:33.849Z,5.35
2022-08-02T06:35:03.687Z,4.90
2022-08-02T06:37:40.107Z,5.15
2022-08-02T06:40:15.915Z,5.85
2022-08-02T06:42:51.311Z,5.20
2022-08-02T06:45:19.457Z,6.07
2022-08-02T06:47:47.384Z,5.68
2022-08-02T06:50:16.949Z,5.55
2022-08-02T06:52:44.835Z,5.72
2022-08-02T06:55:12.760Z,5.38
2022-08-02T06:57:40.692Z,5.95
2022-08-02T07:00:10.179Z,5.95
2022-08-02T07:02:39.731Z,5.85
2022-08-02T07:05:08.795Z,5.70
2022-08-02T07:07:38.112Z,5.13
2022-08-02T07:10:06.670Z,5.20
2022-08-02T07:12:35.535Z,5.60
2022-08-02T07:15:05.556Z,5.68
2022-08-02T07:17:34.430Z,5.38
2022-08-02T07:20:02.626Z,5.65
2022-08-02T07:22:30.933Z,6.60
2022-08-02T07:25:01.590Z,6.18
2022-08-02T07:27:32.979Z,4.68
2022-08-02T07:30:01.993Z,5.82
2022-08-02T07:32:32.103Z,5.15
2022-08-02T07:35:02.683Z,5.32
2022-08-02T07:37:54.879Z,5.38
2022-08-02T07:40:26.425Z,4.95
2022-08-02T07:43:00.958Z,4.65
2022-08-02T07:45:32.680Z,7.53
2022-08-02T07:48:00.684Z,5.32
2022-08-02T07:50:29.063Z,4.57
2022-08-02T07:52:57.585Z,6.03
2022-08-02T07:55:35.197Z,5.13
2022-08-02T07:58:10.824Z,4.40
2022-08-02T08:00:41.000Z,4.70
2022-08-02T08:03:08.980Z,4.32
2022-08-02T08:05:37.144Z,4.80
2022-08-02T08:08:05.932Z,4.60
2022-08-02T08:10:35.263Z,4.72
2022-08-02T08:13:03.149Z,4.60
2022-08-02T08:15:31.095Z,3.55
2022-08-02T08:17:59.213Z,4.60
2022-08-02T08:20:27.280Z,3.92
2022-08-02T08:22:55.201Z,3.90
2022-08-02T08:25:23.760Z,3.90
2022-08-02T08:27:56.699Z,4.18
2022-08-02T08:30:24.979Z,3.92
2022-08-02T08:32:53.068Z,4.57
2022-08-02T08:35:21.639Z,4.15
2022-08-02T08:37:49.798Z,4.75
2022-08-02T08:40:19.485Z,4.07
2022-08-02T08:42:48.126Z,3.90
2022-08-02T08:45:18.052Z,4.22
2022-08-02T08:47:52.613Z,4.13
2022-08-02T08:50:25.816Z,3.78
2022-08-02T08:52:57.751Z,4.30
2022-08-02T08:55:28.708Z,4.18
2022-08-02T08:57:59.138Z,4.55
2022-08-02T09:00:30.200Z,3.60
2022-08-02T09:02:58.986Z,3.65
2022-08-02T09:05:27.141Z,3.83
2022-08-02T09:07:55.344Z,3.83
2022-08-02T09:10:41.034Z,4.18
2022-08-02T09:13:38.019Z,4.18
2022-08-02T09:16:13.089Z,3.95
2022-08-02T09:18:45.147Z,2.97
2022-08-02T09:21:15.035Z,3.40
2022-08-02T09:23:45.342Z,3.90
2022-08-02T09:26:15.927Z,3.53
2022-08-02T09:28:46.119Z,3.42
2022-08-02T09:31:18.135Z,4.07
2022-08-02T09:33:51.193Z,3.90
2022-08-02T09:36:19.555Z,3.70
2022-08-02T09:38:56.302Z,3.42
2022-08-02T09:41:25.936Z,3.70
2022-08-02T09:44:03.714Z,4.47
2022-08-02T09:46:38.283Z,3.90
2022-08-02T09:49:09.262Z,3.97
2022-08-02T09:51:39.455Z,3.80
2022-08-02T09:54:11.786Z,3.95
2022-08-02T09:56:47.919Z,3.63
2022-08-02T09:59:17.975Z,3.75
2022-08-02T10:01:51.022Z,3.25
2022-08-02T10:04:34.159Z,2.90
2022-08-02T10:07:04.351Z,3.92
2022-08-02T10:09:33.203Z,3.45
2022-08-02T10:12:08.552Z,3.97
2022-08-02T10:14:36.616Z,3.65
2022-08-02T10:17:06.063Z,3.83
2022-08-02T10:20:02.232Z,4.07
2022-08-02T10:22:23.695Z,3.30
2022-08-02T10:24:52.701Z,3.67
2022-08-02T10:27:21.918Z,3.10
2022-08-02T10:29:55.913Z,3.40
2022-08-02T10:32:31.022Z,2.80
2022-08-02T10:35:19.784Z,3.78
2022-08-02T10:37:57.299Z,3.38
2022-08-02T10:40:26.685Z,3.50
2022-08-02T10:42:59.419Z,4.03
2022-08-02T10:45:29.476Z,3.15
2022-08-02T10:48:09.087Z,3.40
2022-08-02T10:50:56.393Z,3.05
2022-08-02T10:53:26.600Z,3.15
2022-08-02T10:55:55.421Z,3.20
2022-08-02T10:58:26.142Z,3.33
2022-08-02T11:00:58.441Z,3.40
2022-08-02T11:03:42.443Z,3.30
2022-08-02T11:06:25.566Z,3.70
2022-08-02T11:09:32.908Z,3.40
2022-08-02T11:12:03.838Z,3.40
2022-08-02T11:14:33.228Z,2.80
2022-08-02T11:17:13.023Z,2.92
2022-08-02T11:20:14.742Z,2.92
2022-08-02T11:22:46.307Z,3.25
2022-08-02T11:26:00.902Z,3.00
2022-08-02T11:28:25.038Z,3.55
2022-08-02T11:30:59.182Z,2.97
2022-08-02T11:33:33.397Z,3.40
2022-08-02T11:36:06.626Z,3.10
2022-08-02T11:38:36.100Z,3.20
2022-08-02T11:41:06.134Z,2.60
2022-08-02T11:43:38.588Z,3.60
2022-08-02T11:46:14.658Z,2.50
2022-08-02T11:48:45.006Z,2.42
2022-08-02T11:51:15.909Z,2.70
2022-08-02T11:53:49.492Z,2.30
2022-08-02T11:56:25.017Z,2.50
2022-08-02T12:01:46.634Z,2.60
2022-08-02T12:04:22.965Z,2.47
2022-08-02T12:07:01.503Z,2.40
2022-08-02T12:09:39.244Z,2.47
2022-08-02T12:12:09.126Z,2.60
2022-08-02T12:14:44.234Z,2.40
2022-08-02T12:17:30.243Z,2.40
2022-08-02T12:19:58.250Z,2.88
2022-08-02T12:22:28.130Z,3.30
2022-08-02T12:24:59.239Z,2.90
2022-08-02T12:27:32.400Z,3.03
2022-08-02T12:30:02.758Z,2.58
2022-08-02T12:32:36.437Z,2.78
2022-08-02T12:35:10.658Z,2.60
2022-08-02T12:37:40.268Z,2.47
2022-08-02T12:40:27.250Z,1.98
2022-08-02T12:42:58.766Z,2.60
2022-08-02T12:45:39.177Z,2.28
2022-08-02T12:48:10.544Z,2.78
2022-08-02T12:50:39.169Z,2.53
2022-08-02T12:53:10.205Z,2.53
2022-08-02T12:56:00.703Z,2.80
2022-08-02T12:58:30.671Z,2.50
2022-08-02T13:01:00.864Z,1.95
2022-08-02T13:04:09.665Z,2.67
2022-08-02T13:06:42.958Z,2.67
2022-08-02T13:09:15.493Z,2.13
2022-08-02T13:11:45.444Z,2.72
2022-08-02T13:14:14.650Z,2.33
2022-08-02T13:16:44.194Z,2.10
2022-08-02T13:19:13.191Z,2.80
2022-08-02T13:22:01.213Z,2.10
2022-08-02T13:24:39.817Z,1.80
2022-08-02T13:27:11.302Z,2.13
2022-08-02T13:29:39.703Z,2.15
2022-08-02T13:32:07.961Z,2.50
2022-08-02T13:34:36.207Z,2.35
2022-08-02T13:37:05.075Z,2.20
2022-08-02T13:39:33.165Z,2.25
2022-08-02T13:42:01.163Z,2.50
2022-08-02T13:44:30.515Z,2.28
2022-08-02T13:46:58.512Z,2.30
2022-08-02T13:49:49.861Z,2.83
2022-08-02T13:52:15.141Z,2.60
2022-08-02T13:54:43.369Z,2.47
2022-08-02T13:57:11.350Z,2.55
2022-08-02T13:59:55.895Z,1.88
2022-08-02T14:02:28.085Z,2.63
2022-08-02T14:04:56.587Z,2.33
2022-08-02T14:07:24.745Z,2.10
2022-08-02T14:09:52.935Z,2.47
2022-08-02T14:12:21.068Z,2.42
2022-08-02T14:14:50.463Z,2.40
2022-08-02T14:17:18.831Z,2.20
2022-08-02T14:19:47.083Z,1.77
2022-08-02T14:22:15.064Z,2.85
2022-08-02T14:24:43.246Z,2.17
2022-08-02T14:27:11.369Z,2.45
2022-08-02T14:29:39.369Z,1.90
2022-08-02T14:32:09.594Z,2.30
2022-08-02T14:34:37.711Z,1.95
2022-08-02T14:37:05.918Z,1.95
2022-08-02T14:39:42.866Z,1.50
2022-08-02T14:42:21.844Z,2.45
2022-08-02T14:44:49.766Z,2.13
2022-08-02T14:47:19.176Z,2.10
2022-08-02T14:49:50.248Z,1.90
2022-08-02T14:52:20.895Z,2.20
2022-08-02T14:54:51.496Z,1.80
2022-08-02T14:57:19.579Z,2.17
2022-08-02T14:59:47.537Z,2.20
2022-08-02T15:02:16.141Z,2.10
2022-08-02T15:04:45.616Z,2.30
2022-08-02T15:07:14.921Z,1.83
2022-08-02T15:09:42.988Z,2.65
2022-08-02T15:12:12.395Z,2.60
2022-08-02T15:14:41.585Z,2.08
2022-08-02T15:17:10.295Z,2.28
2022-08-02T15:19:56.998Z,2.10
2022-08-02T15:22:28.931Z,2.10
2022-08-02T15:24:57.104Z,2.15
2022-08-02T15:27:25.185Z,2.53
2022-08-02T15:29:59.808Z,3.60
2022-08-02T15:32:28.143Z,1.95
2022-08-02T15:34:56.232Z,2.08
2022-08-02T15:37:24.144Z,1.70
2022-08-02T15:39:54.859Z,2.08
2022-08-02T15:42:30.143Z,2.03
2022-08-02T15:44:59.227Z,2.35
2022-08-02T15:47:27.195Z,2.10
2022-08-02T15:49:55.178Z,2.03
2022-08-02T15:52:23.132Z,2.65
2022-08-02T15:54:51.096Z,2.67
2022-08-02T15:57:20.390Z,2.33
2022-08-02T15:59:48.580Z,1.80
2022-08-02T16:02:19.043Z,2.10
2022-08-02T16:04:47.107Z,1.95
2022-08-02T16:07:15.437Z,1.98
2022-08-02T16:09:43.422Z,3.83
2022-08-02T16:12:11.612Z,2.50
2022-08-02T16:14:41.266Z,1.88
2022-08-02T16:17:09.322Z,2.03
2022-08-02T16:19:48.428Z,2.22
2022-08-02T16:22:17.870Z,2.55
2022-08-02T16:24:46.060Z,2.20
2022-08-02T16:27:14.107Z,2.55
2022-08-02T16:29:43.476Z,2.13
2022-08-02T16:32:12.310Z,2.20
2022-08-02T16:35:06.893Z,1.83
2022-08-02T16:37:28.431Z,2.05
2022-08-02T16:40:16.473Z,2.33
2022-08-02T16:42:50.627Z,1.70
2022-08-02T16:45:21.407Z,2.25
2022-08-02T16:47:55.782Z,3.05
2022-08-02T16:50:27.364Z,1.98
2022-08-02T16:52:58.073Z,2.00
2022-08-02T16:55:29.123Z,2.30
2022-08-02T16:57:58.768Z,2.70
2022-08-02T17:00:28.447Z,1.80
2022-08-02T17:02:59.181Z,1.95
2022-08-02T17:05:29.844Z,2.47
2022-08-02T17:08:16.912Z,2.10
2022-08-02T17:10:45.775Z,2.10
2022-08-02T17:13:14.289Z,1.77
2022-08-02T17:16:08.621Z,2.08
2022-08-02T17:18:34.183Z,1.90
2022-08-02T17:21:07.641Z,2.00
2022-08-02T17:24:06.073Z,2.25
2022-08-02T17:29:16.106Z,2.03
2022-08-02T17:32:05.354Z,2.17
2022-08-02T17:34:34.221Z,1.70
2022-08-02T17:37:02.211Z,1.95
2022-08-02T17:39:44.237Z,1.80
2022-08-02T17:42:20.627Z,1.85
2022-08-02T17:44:52.595Z,1.73
2022-08-02T17:50:13.305Z,1.63
2022-08-02T17:52:50.947Z,1.63
2022-08-02T17:55:21.217Z,3.05
2022-08-02T18:00:38.889Z,2.20
2022-08-02T18:03:10.193Z,2.17
2022-08-02T18:05:53.518Z,2.20
2022-08-02T18:08:24.031Z,2.05
2022-08-02T18:10:53.411Z,2.78
2022-08-02T18:13:21.645Z,2.28
2022-08-02T18:15:50.208Z,2.28
2022-08-02T18:18:26.613Z,1.73
2022-08-02T18:20:58.578Z,2.20
2022-08-02T18:23:49.481Z,2.20
2022-08-02T18:26:27.342Z,3.28
2022-08-02T18:28:55.715Z,2.67
2022-08-02T18:31:25.046Z,2.28
2022-08-02T18:34:01.965Z,4.43
2022-08-02T18:36:31.068Z,3.47
2022-08-02T18:39:00.327Z,4.43
2022-08-02T18:41:36.761Z,4.13
2022-08-02T18:44:06.483Z,4.55
2022-08-02T18:46:34.757Z,3.40
2022-08-02T18:49:14.730Z,3.83
2022-08-02T18:51:43.263Z,5.57
2022-08-02T18:54:11.992Z,7.05
2022-08-02T18:56:40.657Z,3.30
2022-08-02T18:59:15.556Z,2.58
2022-08-02T19:01:50.707Z,3.10
2022-08-02T19:04:27.655Z,3.28
2022-08-02T19:07:01.655Z,2.45
2022-08-02T19:09:35.258Z,2.75
2022-08-02T19:12:06.430Z,2.65
2022-08-02T19:14:35.063Z,2.40
2022-08-02T19:17:53.172Z,2.83
2022-08-02T19:19:52.630Z,2.28
2022-08-02T19:22:24.963Z,2.33
2022-08-02T19:25:01.248Z,3.25
2022-08-02T19:27:34.340Z,3.20
2022-08-02T19:30:03.151Z,2.67
2022-08-02T19:32:41.682Z,3.00
2022-08-02T19:35:30.855Z,3.20
2022-08-02T19:38:11.696Z,3.15
2022-08-02T19:40:41.750Z,2.95
2022-08-02T19:44:24.504Z,2.92
2022-08-02T19:46:01.299Z,2.42
2022-08-02T19:48:29.419Z,4.75
2022-08-02T19:51:01.495Z,4.28
2022-08-02T19:53:46.862Z,3.05
2022-08-02T19:56:21.282Z,2.60
2022-08-02T19:58:51.438Z,3.35
2022-08-02T20:01:26.974Z,2.75
2022-08-02T20:04:06.319Z,3.25
2022-08-02T20:06:36.656Z,2.80
2022-08-02T20:09:05.106Z,3.25
2022-08-02T20:11:34.391Z,3.45
2022-08-02T20:14:04.000Z,3.13
2022-08-02T20:16:33.007Z,3.65
2022-08-02T20:19:01.390Z,2.72
2022-08-02T20:21:35.638Z,3.38
2022-08-02T20:24:07.459Z,3.35
2022-08-02T20:26:35.786Z,2.60
2022-08-02T20:29:08.798Z,2.90
2022-08-02T20:31:37.430Z,2.75
2022-08-02T20:34:07.204Z,3.80
2022-08-02T20:36:43.882Z,2.58
2022-08-02T20:39:43.665Z,2.95
2022-08-02T20:42:23.600Z,2.70
2022-08-02T20:47:50.876Z,3.00
2022-08-02T20:50:39.037Z,2.92
2022-08-02T20:53:08.600Z,2.85
2022-08-02T20:55:55.026Z,3.63
2022-08-02T20:58:26.560Z,3.58
2022-08-02T21:01:01.552Z,3.78
2022-08-02T21:03:42.098Z,2.50
2022-08-02T21:06:16.961Z,4.50
2022-08-02T21:08:56.909Z,3.55
2022-08-02T21:11:33.595Z,2.75
2022-08-02T21:14:08.643Z,3.80
2022-08-02T21:16:42.218Z,3.15
2022-08-02T21:19:19.252Z,2.90
2022-08-02T21:21:51.666Z,3.00
2022-08-02T21:24:20.089Z,3.83
2022-08-02T21:26:54.076Z,2.83
2022-08-02T21:29:23.475Z,2.60
2022-08-02T21:31:51.327Z,2.33
2022-08-02T21:34:22.403Z,2.30
2022-08-02T21:36:55.667Z,2.37
2022-08-02T21:39:23.606Z,2.42
2022-08-02T21:41:53.041Z,2.40
2022-08-02T21:44:22.786Z,4.00
2022-08-02T21:46:52.568Z,3.35
2022-08-02T21:49:40.754Z,3.00
2022-08-02T21:52:10.193Z,3.40
2022-08-02T21:54:39.658Z,3.25
2022-08-02T21:57:15.795Z,2.95
2022-08-02T21:59:45.733Z,3.20
2022-08-02T22:02:14.515Z,3.40
2022-08-02T22:04:47.451Z,2.97
2022-08-02T22:07:17.072Z,3.10
2022-08-02T22:09:45.866Z,4.40
2022-08-02T22:12:19.016Z,4.30
2022-08-02T22:14:54.131Z,4.23
2022-08-02T22:17:52.715Z,5.03
2022-08-02T22:20:12.721Z,3.90
2022-08-02T22:22:41.579Z,3.50
2022-08-02T22:25:21.621Z,3.60
2022-08-02T22:28:11.944Z,4.17
2022-08-02T22:30:52.529Z,4.13
2022-08-02T22:33:38.814Z,3.93
2022-08-02T22:36:11.405Z,5.00
2022-08-02T22:38:44.331Z,4.13
2022-08-02T22:41:13.384Z,4.33
2022-08-02T22:43:43.245Z,4.67
2022-08-02T22:46:15.358Z,4.93
2022-08-02T22:48:44.025Z,4.80
2022-08-02T22:51:12.584Z,4.13
2022-08-02T22:53:41.358Z,3.87
2022-08-02T22:56:09.424Z,4.00
2022-08-02T22:58:49.062Z,2.10
2022-08-02T22:58:49.769Z,2.22
2022-08-02T22:58:50.219Z,1.80
2022-08-02T23:01:26.870Z,4.10
2022-08-02T23:03:54.909Z,3.20
2022-08-02T23:06:23.035Z,4.40
2022-08-02T23:08:51.277Z,3.93
2022-08-02T23:11:19.185Z,3.80
2022-08-02T23:13:47.068Z,3.80
2022-08-02T23:16:37.214Z,3.90
2022-08-02T23:19:24.464Z,3.40
2022-08-02T23:22:02.785Z,4.40
2022-08-02T23:24:32.926Z,3.80
2022-08-02T23:27:00.912Z,5.40
2022-08-02T23:29:28.941Z,4.20
2022-08-02T23:31:56.828Z,4.00
2022-08-02T23:34:28.346Z,3.50
2022-08-02T23:36:56.258Z,4.20
2022-08-02T23:39:24.193Z,3.30
2022-08-02T23:41:55.297Z,4.30
2022-08-02T23:44:23.970Z,4.10
2022-08-02T23:46:52.488Z,4.37
2022-08-02T23:49:20.945Z,3.27
2022-08-02T23:51:50.986Z,3.70
2022-08-02T23:54:19.151Z,3.00
2022-08-02T23:56:47.340Z,4.00
2022-08-02T23:59:15.510Z,3.47
